Time;durP1;ratioP1;P1;durP2;ratioP2;P2;SDS_P1;SDS_P2;PMS_P1;PMS_P2;Temp;Humidity;BMP_temperature;BMP_pressure;BME280_temperature;BME280_humidity;BME280_pressure;Samples;Min_cycle;Max_cycle;Signal;HPM_P1;HPM_P2
2021/04/26 00:01:44;;;;;;;3.90;3.55;;;;;;;8.63;45.33;99608.09;4954016;29;20272;-74
2021/04/26 00:04:10;;;;;;;4.75;3.80;;;;;;;8.62;45.38;99605.50;4953771;29;20212;-74
2021/04/26 00:06:36;;;;;;;6.45;4.22;;;;;;;8.49;45.76;99598.06;4953835;28;20281;-74
2021/04/26 00:09:04;;;;;;;4.68;4.10;;;;;;;8.36;46.05;99599.56;4954540;28;20300;-75
2021/04/26 00:11:30;;;;;;;7.03;3.30;;;;;;;8.50;45.87;99589.06;4954420;29;20215;-73
2021/04/26 00:13:56;;;;;;;6.38;3.72;;;;;;;8.49;45.84;99581.94;4954389;28;20720;-75
2021/04/26 00:16:22;;;;;;;5.00;3.53;;;;;;;8.43;46.09;99579.56;4954134;29;20193;-76
2021/04/26 00:18:49;;;;;;;7.10;3.83;;;;;;;8.31;46.29;99574.78;4954180;28;20223;-75
2021/04/26 00:21:15;;;;;;;10.13;3.25;;;;;;;8.34;46.21;99578.19;4954230;28;20181;-76
2021/04/26 00:23:41;;;;;;;4.93;4.10;;;;;;;8.40;46.29;99570.78;4953377;29;20640;-75
2021/04/26 00:26:08;;;;;;;4.65;4.10;;;;;;;8.30;46.27;99581.09;4953796;28;20279;-75
2021/04/26 00:28:34;;;;;;;4.82;3.22;;;;;;;8.24;46.59;99586.75;4957442;28;20600;-75
2021/04/26 00:31:02;;;;;;;5.15;3.60;;;;;;;8.35;46.39;99585.28;4957777;29;20285;-75
2021/04/26 00:33:28;;;;;;;7.00;4.10;;;;;;;8.37;46.16;99582.53;4957634;29;20268;-74
2021/04/26 00:35:54;;;;;;;6.80;4.05;;;;;;;8.33;46.36;99570.22;4957687;28;20372;-75
2021/04/26 00:38:21;;;;;;;3.83;3.50;;;;;;;8.23;46.57;99571.59;4957507;29;20244;-75
2021/04/26 00:40:47;;;;;;;6.60;4.35;;;;;;;8.27;46.41;99557.97;4957428;29;20279;-76
2021/04/26 00:43:14;;;;;;;5.05;4.25;;;;;;;8.24;46.52;99551.91;4957131;29;20228;-75
2021/04/26 00:45:40;;;;;;;7.40;4.25;;;;;;;8.17;46.60;99550.47;4956933;29;20283;-75
2021/04/26 00:48:08;;;;;;;4.50;4.00;;;;;;;8.19;46.69;99551.25;4957490;29;20555;-74
2021/04/26 00:50:34;;;;;;;9.32;4.47;;;;;;;8.18;46.62;99542.31;4957599;29;20639;-73
2021/04/26 00:53:03;;;;;;;5.65;4.15;;;;;;;8.13;46.70;99547.91;4957332;28;20338;-76
2021/04/26 00:55:32;;;;;;;4.95;3.90;;;;;;;8.19;46.73;99529.81;4957206;29;20224;-75
2021/04/26 00:57:59;;;;;;;5.63;4.30;;;;;;;8.17;46.59;99539.72;4957540;29;20546;-75
2021/04/26 01:00:28;;;;;;;5.40;3.63;;;;;;;8.12;46.54;99543.50;4957098;29;20255;-75
2021/04/26 01:02:54;;;;;;;4.95;3.50;;;;;;;8.03;46.76;99545.78;4956437;28;20278;-75
2021/04/26 01:05:22;;;;;;;4.72;4.22;;;;;;;7.97;47.00;99552.28;4957087;29;20706;-75
2021/04/26 01:07:50;;;;;;;6.90;4.30;;;;;;;7.81;47.35;99541.44;4957201;28;20291;-76
2021/04/26 01:10:19;;;;;;;6.90;5.00;;;;;;;7.86;47.32;99539.38;4956857;29;20237;-75
2021/04/26 01:13:04;;;;;;;7.60;5.63;;;;;;;7.79;47.57;99537.09;4956716;28;20296;-76
2021/04/26 01:15:39;;;;;;;9.55;5.40;;;;;;;7.91;47.19;99528.44;4957250;29;20188;-75
2021/04/26 01:18:10;;;;;;;5.40;4.07;;;;;;;7.85;47.23;99523.41;4956696;28;20204;-75
2021/04/26 01:21:02;;;;;;;9.50;5.00;;;;;;;7.85;47.39;99516.22;4956635;28;20197;-76
2021/04/26 01:24:22;;;;;;;6.57;4.28;;;;;;;7.79;47.34;99512.97;4956849;28;20208;-75
2021/04/26 01:27:05;;;;;;;4.85;4.35;;;;;;;7.81;47.11;99497.69;4911307;28;20314;-75
2021/04/26 01:29:48;;;;;;;4.90;4.45;;;;;;;7.69;47.33;99499.16;4956543;29;20193;-75
2021/04/26 01:32:25;;;;;;;5.55;3.90;;;;;;;7.72;47.45;99504.34;4956490;28;20224;-74
2021/04/26 01:34:51;;;;;;;5.10;4.15;;;;;;;7.70;47.46;99507.09;4956685;29;20296;-74
2021/04/26 01:37:18;;;;;;;6.82;3.67;;;;;;;7.58;47.80;99501.47;4956663;29;20215;-75
2021/04/26 01:39:48;;;;;;;8.77;4.53;;;;;;;7.55;47.83;99502.44;4955588;28;20233;-75
2021/04/26 01:42:16;;;;;;;8.80;4.28;;;;;;;7.43;47.96;99503.91;4956709;29;20228;-74
2021/04/26 01:44:43;;;;;;;4.63;4.13;;;;;;;7.34;48.41;99508.84;4956455;28;20205;-75
2021/04/26 01:47:10;;;;;;;7.63;3.90;;;;;;;7.37;48.50;99489.94;4956088;28;20276;-75
2021/04/26 01:49:40;;;;;;;5.55;4.28;;;;;;;7.52;48.21;99491.88;4956174;29;20284;-74
2021/04/26 01:52:07;;;;;;;4.53;4.10;;;;;;;7.43;48.04;99492.31;4956120;29;20679;-75
2021/04/26 01:54:34;;;;;;;6.07;4.03;;;;;;;7.46;48.28;99479.66;4955662;29;20195;-75
2021/04/26 01:57:00;;;;;;;5.85;3.65;;;;;;;7.49;47.87;99487.56;4956065;28;20204;-75
2021/04/26 01:59:27;;;;;;;5.88;4.18;;;;;;;7.48;47.62;99482.25;4956000;28;20200;-75
2021/04/26 02:01:55;;;;;;;6.18;4.03;;;;;;;7.59;47.37;99481.75;4956244;29;20696;-74
2021/04/26 02:04:22;;;;;;;5.38;4.40;;;;;;;7.51;47.41;99484.81;4956048;29;20243;-75
2021/04/26 02:06:50;;;;;;;5.05;4.00;;;;;;;7.57;47.35;99499.72;4956068;28;20609;-75
2021/04/26 02:09:16;;;;;;;7.38;3.60;;;;;;;7.69;47.30;99500.00;4955680;29;20240;-75
2021/04/26 02:11:43;;;;;;;5.90;4.10;;;;;;;7.75;47.37;99508.69;4955599;29;20235;-76
2021/04/26 02:14:11;;;;;;;5.18;3.80;;;;;;;7.98;46.59;99495.03;4955477;29;20220;-75
2021/04/26 02:16:38;;;;;;;4.70;4.10;;;;;;;7.78;46.83;99506.75;4955349;29;20228;-74
2021/04/26 02:19:04;;;;;;;6.50;4.03;;;;;;;7.81;46.75;99511.09;4955618;28;20291;-75
2021/04/26 02:21:30;;;;;;;5.65;3.83;;;;;;;7.73;46.77;99501.59;4955526;29;20181;-75
2021/04/26 02:23:57;;;;;;;8.63;4.28;;;;;;;7.56;47.24;99503.34;4955843;29;20228;-74
2021/04/26 02:26:23;;;;;;;6.65;3.97;;;;;;;7.63;47.16;99511.00;4955423;28;20204;-76
2021/04/26 02:28:49;;;;;;;5.60;4.15;;;;;;;7.63;47.32;99508.34;4955703;29;20655;-74
2021/04/26 02:31:20;;;;;;;5.40;4.13;;;;;;;7.62;47.37;99509.28;4955727;28;20276;-76
2021/04/26 02:33:52;;;;;;;4.65;4.25;;;;;;;7.59;47.27;99504.06;4955602;29;20280;-76
2021/04/26 02:36:24;;;;;;;4.60;4.20;;;;;;;7.59;47.42;99503.19;4955660;28;20308;-74
2021/04/26 02:38:53;;;;;;;6.00;4.28;;;;;;;7.60;47.32;99503.13;4936109;29;20209;-75
2021/04/26 02:41:24;;;;;;;5.25;3.90;;;;;;;7.59;47.43;99504.06;4936301;29;20296;-75
2021/04/26 02:43:54;;;;;;;7.22;3.97;;;;;;;7.50;47.47;99508.03;4936018;29;20225;-75
2021/04/26 02:46:23;;;;;;;5.78;4.53;;;;;;;7.44;48.10;99519.06;4936376;29;20220;-75
2021/04/26 02:48:50;;;;;;;5.38;4.10;;;;;;;7.19;48.35;99511.28;4936027;29;20674;-75
2021/04/26 02:51:18;;;;;;;7.15;4.15;;;;;;;7.14;48.72;99509.75;4935879;29;20281;-75
2021/04/26 02:53:45;;;;;;;6.43;4.50;;;;;;;6.99;49.14;99509.50;4935979;29;20280;-74
2021/04/26 02:56:15;;;;;;;5.05;3.90;;;;;;;7.22;48.48;99505.78;4935698;29;20240;-75
2021/04/26 02:58:45;;;;;;;7.60;4.05;;;;;;;7.29;48.23;99501.88;4937913;29;20189;-76
2021/04/26 03:01:12;;;;;;;6.18;4.30;;;;;;;7.26;48.58;99506.53;4954846;29;20193;-75
2021/04/26 03:03:41;;;;;;;8.50;4.50;;;;;;;7.18;48.52;99506.84;4954896;29;20565;-74
2021/04/26 03:06:09;;;;;;;5.88;4.13;;;;;;;7.10;48.76;99495.63;4954803;28;20240;-75
2021/04/26 03:08:36;;;;;;;5.80;3.80;;;;;;;7.10;48.94;99501.84;4955224;29;20279;-76
2021/04/26 03:11:06;;;;;;;5.15;4.15;;;;;;;6.97;49.44;99494.47;4954898;29;20633;-75
2021/04/26 03:13:33;;;;;;;9.98;4.80;;;;;;;7.07;49.35;99485.91;4955009;29;20324;-74
2021/04/26 03:16:00;;;;;;;6.95;4.50;;;;;;;7.07;49.15;99485.06;4954363;29;20224;-75
2021/04/26 03:18:27;;;;;;;6.25;3.95;;;;;;;6.97;49.42;99489.09;4954445;29;20193;-74
2021/04/26 03:20:53;;;;;;;5.72;3.65;;;;;;;7.01;49.68;99485.31;4954555;29;20343;-75
2021/04/26 03:23:23;;;;;;;10.20;3.63;;;;;;;7.03;49.65;99489.69;4954225;29;20247;-75
2021/04/26 03:25:50;;;;;;;10.55;4.35;;;;;;;6.70;50.23;99485.84;4954899;29;20519;-75
2021/04/26 03:28:18;;;;;;;5.68;3.50;;;;;;;6.56;50.91;99481.09;4954341;28;20199;-75
2021/04/26 03:30:45;;;;;;;7.57;3.85;;;;;;;6.48;51.26;99470.72;4954669;28;20296;-74
2021/04/26 03:33:14;;;;;;;5.93;4.30;;;;;;;6.54;51.45;99464.25;4954588;28;20216;-75
2021/04/26 03:35:42;;;;;;;4.75;3.85;;;;;;;6.43;51.61;99467.38;4954407;29;20205;-75
2021/04/26 03:38:09;;;;;;;7.18;3.80;;;;;;;6.36;51.73;99471.25;4954532;29;20234;-75
2021/04/26 03:40:37;;;;;;;4.40;3.90;;;;;;;6.62;51.36;99475.47;4954618;28;20196;-75
2021/04/26 03:43:03;;;;;;;5.65;5.13;;;;;;;6.53;51.35;99473.19;4954446;29;20284;-75
2021/04/26 03:45:30;;;;;;;6.90;4.43;;;;;;;6.53;51.59;99475.88;4954541;29;20223;-75
2021/04/26 03:47:56;;;;;;;7.13;4.35;;;;;;;6.53;51.72;99467.84;4954320;28;20240;-76
2021/04/26 03:50:26;;;;;;;4.28;3.88;;;;;;;6.58;51.65;99476.53;4954130;29;20189;-75
2021/04/26 03:52:53;;;;;;;11.13;4.38;;;;;;;6.61;51.86;99473.75;4954118;29;20300;-75
2021/04/26 03:55:22;;;;;;;4.65;4.00;;;;;;;6.53;51.84;99470.50;4954421;28;20564;-74
2021/04/26 03:57:49;;;;;;;10.85;4.35;;;;;;;6.67;51.43;99462.75;4953838;29;20200;-75
2021/04/26 04:00:17;;;;;;;7.95;4.75;;;;;;;6.68;51.56;99457.34;4954214;29;20247;-75
2021/04/26 04:02:43;;;;;;;6.00;4.30;;;;;;;6.65;51.50;99452.13;4953615;28;20213;-74
2021/04/26 04:05:11;;;;;;;4.85;4.38;;;;;;;6.69;51.71;99458.19;4953609;28;20232;-76
2021/04/26 04:07:38;;;;;;;6.80;4.30;;;;;;;6.75;51.36;99455.25;4953587;29;20189;-74
2021/04/26 04:10:05;;;;;;;8.93;3.80;;;;;;;6.63;51.43;99453.13;4953937;29;20568;-74
2021/04/26 04:12:32;;;;;;;5.72;4.43;;;;;;;6.44;52.29;99459.31;4954056;29;20659;-74
2021/04/26 04:14:58;;;;;;;8.00;4.60;;;;;;;6.53;51.86;99460.69;4954015;28;20236;-75
2021/04/26 04:17:24;;;;;;;6.35;4.65;;;;;;;6.47;51.90;99456.47;4953976;29;20185;-76
2021/04/26 04:19:51;;;;;;;6.95;4.30;;;;;;;6.47;52.27;99458.28;4953640;28;20231;-75
2021/04/26 04:22:17;;;;;;;13.52;5.40;;;;;;;6.41;52.10;99448.72;4953840;29;20212;-75
2021/04/26 04:24:44;;;;;;;8.65;4.28;;;;;;;6.38;52.47;99448.84;4954078;29;20638;-75
2021/04/26 04:27:10;;;;;;;4.90;4.40;;;;;;;6.50;52.06;99449.25;4953454;28;20235;-75
2021/04/26 04:29:36;;;;;;;7.90;4.05;;;;;;;6.52;52.19;99453.59;4953828;28;20208;-76
2021/04/26 04:32:03;;;;;;;5.88;4.25;;;;;;;6.44;52.12;99453.06;4953409;29;20572;-75
2021/04/26 04:34:29;;;;;;;6.63;4.53;;;;;;;6.39;52.55;99450.59;4953516;29;20279;-75
2021/04/26 04:36:56;;;;;;;8.20;4.30;;;;;;;6.33;52.37;99440.19;4953403;29;20218;-75
2021/04/26 04:39:22;;;;;;;6.68;3.60;;;;;;;6.27;52.57;99451.13;4953409;29;20279;-75
2021/04/26 04:41:49;;;;;;;12.30;4.32;;;;;;;6.36;52.57;99452.53;4953742;29;20280;-74
2021/04/26 04:44:15;;;;;;;8.00;4.88;;;;;;;6.18;52.80;99448.84;4953414;29;20200;-75
2021/04/26 04:46:42;;;;;;;6.78;4.10;;;;;;;6.22;52.81;99453.13;4953562;29;20189;-76
2021/04/26 04:49:08;;;;;;;5.88;4.53;;;;;;;6.28;52.48;99447.50;4953715;29;20632;-74
2021/04/26 04:51:35;;;;;;;9.25;4.63;;;;;;;6.16;52.52;99459.59;4953474;29;20240;-75
2021/04/26 04:54:02;;;;;;;6.13;4.60;;;;;;;6.15;52.90;99452.53;4953727;28;20208;-74
2021/04/26 04:56:28;;;;;;;4.10;3.80;;;;;;;6.17;52.60;99439.97;4953283;29;20195;-74
2021/04/26 04:58:55;;;;;;;5.70;4.47;;;;;;;6.24;52.93;99452.13;4953291;29;20240;-73
2021/04/26 05:01:21;;;;;;;7.68;4.53;;;;;;;6.17;52.68;99455.13;4953312;28;20189;-75
2021/04/26 05:03:48;;;;;;;5.50;4.22;;;;;;;6.20;52.88;99452.34;4953638;29;20214;-74
2021/04/26 05:06:14;;;;;;;5.30;4.25;;;;;;;6.17;52.76;99452.44;4953027;29;20602;-74
2021/04/26 05:08:40;;;;;;;10.68;4.80;;;;;;;6.37;52.27;99452.44;4953344;29;20231;-75
2021/04/26 05:11:06;;;;;;;9.23;4.57;;;;;;;6.43;52.03;99457.53;4953046;28;20303;-75
2021/04/26 05:13:32;;;;;;;11.50;4.50;;;;;;;6.43;52.52;99449.53;4953211;28;20214;-75
2021/04/26 05:15:59;;;;;;;5.80;4.57;;;;;;;6.63;51.74;99453.13;4956443;29;20276;-74
2021/04/26 05:18:25;;;;;;;7.22;4.82;;;;;;;6.58;51.98;99460.47;4956867;29;20700;-74
2021/04/26 05:20:52;;;;;;;4.97;4.05;;;;;;;6.56;51.46;99459.72;4957014;28;20227;-74
2021/04/26 05:23:18;;;;;;;6.70;4.18;;;;;;;6.59;51.34;99470.25;4956532;29;20296;-75
2021/04/26 05:25:44;;;;;;;17.23;5.35;;;;;;;6.49;51.62;99469.81;4956426;29;20197;-75
2021/04/26 05:28:10;;;;;;;8.30;5.45;;;;;;;6.49;51.83;99464.44;4956060;29;20471;-74
2021/04/26 05:30:36;;;;;;;7.22;5.30;;;;;;;6.60;51.79;99467.53;4956529;28;20263;-75
2021/04/26 05:33:03;;;;;;;8.70;5.22;;;;;;;6.74;51.61;99466.03;4956639;28;20760;-74
2021/04/26 05:35:29;;;;;;;12.35;4.80;;;;;;;7.01;50.90;99459.44;4956202;28;20205;-76
2021/04/26 05:37:56;;;;;;;8.85;4.70;;;;;;;7.14;50.03;99462.41;4955976;29;20232;-75
2021/04/26 05:40:22;;;;;;;7.90;5.50;;;;;;;7.19;50.19;99465.75;4956202;29;20224;-76
2021/04/26 05:42:48;;;;;;;6.78;6.07;;;;;;;7.40;49.98;99463.03;4956104;28;20197;-76
2021/04/26 05:45:18;;;;;;;9.48;4.70;;;;;;;7.45;49.56;99459.16;4956327;28;20224;-76
2021/04/26 05:47:44;;;;;;;5.68;3.90;;;;;;;7.86;48.07;99455.44;4955871;28;20208;-75
2021/04/26 05:50:11;;;;;;;9.93;5.28;;;;;;;8.27;47.24;99458.72;4955945;29;20691;-76
2021/04/26 05:52:38;;;;;;;6.43;4.38;;;;;;;8.75;45.89;99464.31;4955472;28;20264;-76
2021/04/26 05:55:05;;;;;;;7.05;4.25;;;;;;;8.92;45.25;99460.75;4956166;28;20590;-75
2021/04/26 05:57:31;;;;;;;6.10;4.10;;;;;;;9.09;44.90;99459.84;4955851;29;20292;-75
2021/04/26 05:59:57;;;;;;;6.60;5.65;;;;;;;9.23;44.50;99464.50;4955819;29;20247;-75
2021/04/26 06:02:23;;;;;;;8.50;4.55;;;;;;;9.38;43.94;99463.63;4956348;29;20219;-75
2021/04/26 06:04:49;;;;;;;6.00;4.53;;;;;;;9.37;43.91;99456.53;4955611;28;20328;-76
2021/04/26 06:07:16;;;;;;;6.15;4.45;;;;;;;9.04;44.25;99453.84;4955808;28;20221;-75
2021/04/26 06:09:45;;;;;;;5.40;4.80;;;;;;;8.62;45.12;99456.06;4955926;28;20281;-78
2021/04/26 06:12:12;;;;;;;6.78;3.95;;;;;;;8.53;45.52;99454.72;4956623;28;20233;-75
2021/04/26 06:14:38;;;;;;;5.43;3.92;;;;;;;8.66;45.27;99451.38;4955038;29;20195;-75
2021/04/26 06:17:04;;;;;;;9.00;4.47;;;;;;;8.69;44.96;99446.75;4955779;29;20186;-75
2021/04/26 06:19:30;;;;;;;6.18;4.80;;;;;;;8.69;45.18;99443.19;4955136;29;20300;-76
2021/04/26 06:21:56;;;;;;;6.55;4.88;;;;;;;8.40;45.52;99432.16;4955228;29;20224;-75
2021/04/26 06:24:23;;;;;;;5.38;4.85;;;;;;;8.73;45.19;99442.09;4955299;28;20498;-75
2021/04/26 06:26:49;;;;;;;4.63;4.22;;;;;;;8.99;44.56;99435.31;4954983;29;20201;-75
2021/04/26 06:29:15;;;;;;;5.70;4.80;;;;;;;8.92;44.50;99440.13;4955157;29;20195;-75
2021/04/26 06:31:41;;;;;;;5.25;4.75;;;;;;;9.14;43.92;99439.00;4955129;29;20638;-75
2021/04/26 06:34:07;;;;;;;5.38;4.55;;;;;;;9.04;43.69;99427.00;4955251;29;20719;-75
2021/04/26 06:36:33;;;;;;;7.10;4.13;;;;;;;9.17;43.68;99439.66;4955384;29;20680;-75
2021/04/26 06:39:00;;;;;;;8.88;4.57;;;;;;;9.14;43.50;99428.25;4955040;29;20571;-75
2021/04/26 06:41:27;;;;;;;7.55;4.63;;;;;;;9.18;43.47;99424.44;4955491;29;20272;-75
2021/04/26 06:43:53;;;;;;;4.35;3.75;;;;;;;8.77;43.99;99422.16;4954856;28;20296;-75
2021/04/26 06:46:19;;;;;;;5.07;4.28;;;;;;;8.72;43.78;99410.81;4954612;29;20194;-75
2021/04/26 06:48:45;;;;;;;7.95;4.55;;;;;;;8.77;44.11;99411.44;4955097;29;20674;-76
2021/04/26 06:51:11;;;;;;;10.13;5.30;;;;;;;8.89;44.09;99401.88;4955070;29;20188;-75
2021/04/26 06:53:37;;;;;;;5.45;4.03;;;;;;;9.07;43.51;99406.22;4954894;28;20683;-74
2021/04/26 06:56:04;;;;;;;4.93;3.92;;;;;;;8.95;43.67;99407.78;4954599;28;20216;-76
2021/04/26 06:58:31;;;;;;;5.53;4.10;;;;;;;9.12;43.55;99397.91;4954951;28;20193;-75
2021/04/26 07:00:57;;;;;;;5.38;4.88;;;;;;;9.25;42.97;99404.34;4954805;29;20205;-75
2021/04/26 07:03:23;;;;;;;6.65;4.63;;;;;;;9.24;43.11;99405.28;4954801;29;20213;-75
2021/04/26 07:05:49;;;;;;;13.82;6.13;;;;;;;9.30;43.15;99404.94;4954483;29;20263;-74
2021/04/26 07:08:15;;;;;;;6.18;4.75;;;;;;;9.58;42.73;99398.84;4954896;29;20323;-75
2021/04/26 07:10:42;;;;;;;8.98;4.57;;;;;;;9.54;42.62;99394.63;4954549;29;20304;-75
2021/04/26 07:13:08;;;;;;;8.38;4.63;;;;;;;9.70;43.14;99397.31;4954112;29;20209;-76
2021/04/26 07:15:35;;;;;;;7.43;4.28;;;;;;;9.80;41.96;99398.50;4954743;29;20588;-77
2021/04/26 07:18:01;;;;;;;6.18;4.40;;;;;;;9.89;41.92;99394.41;4954753;29;20209;-76
2021/04/26 07:20:27;;;;;;;8.35;4.72;;;;;;;10.32;41.38;99401.78;4954018;29;20191;-75
2021/04/26 07:22:54;;;;;;;6.07;5.18;;;;;;;10.20;40.95;99395.28;4954427;29;20530;-76
2021/04/26 07:25:20;;;;;;;13.63;4.65;;;;;;;10.25;40.89;99395.00;4954000;29;20210;-75
2021/04/26 07:27:46;;;;;;;6.47;4.40;;;;;;;10.40;40.84;99394.09;4954228;29;20271;-76
2021/04/26 07:30:14;;;;;;;8.32;3.90;;;;;;;10.62;40.54;99399.91;4954037;28;20294;-74
2021/04/26 07:32:41;;;;;;;5.28;4.40;;;;;;;10.44;40.37;99393.81;4954028;28;20286;-74
2021/04/26 07:35:11;;;;;;;7.63;5.00;;;;;;;10.49;40.76;99390.88;4954083;28;20246;-74
2021/04/26 07:37:37;;;;;;;8.10;4.60;;;;;;;10.57;40.49;99393.94;4953566;28;20222;-73
2021/04/26 07:40:05;;;;;;;5.57;4.07;;;;;;;10.48;40.51;99397.22;4954295;28;20294;-74
2021/04/26 07:42:31;;;;;;;4.90;4.50;;;;;;;10.47;40.69;99387.41;4954034;29;20686;-74
2021/04/26 07:44:58;;;;;;;6.97;4.10;;;;;;;10.80;40.16;99397.03;4953439;29;20186;-73
2021/04/26 07:47:24;;;;;;;6.20;5.28;;;;;;;11.12;39.80;99405.78;4954160;29;20217;-74
2021/04/26 07:49:51;;;;;;;6.28;4.63;;;;;;;11.00;39.60;99404.75;4954213;29;20306;-73
2021/04/26 07:52:17;;;;;;;7.88;5.18;;;;;;;10.91;39.67;99408.00;4953664;29;20284;-74
2021/04/26 07:54:43;;;;;;;6.20;4.28;;;;;;;11.24;39.40;99412.25;4953756;29;20294;-75
2021/04/26 07:57:09;;;;;;;10.20;4.70;;;;;;;11.35;39.21;99404.34;4953855;29;20236;-73
2021/04/26 07:59:36;;;;;;;8.15;5.90;;;;;;;11.46;39.01;99407.22;4953152;29;20283;-72
2021/04/26 08:02:02;;;;;;;6.88;5.05;;;;;;;11.56;38.88;99402.06;4953503;29;20187;-73
2021/04/26 08:04:29;;;;;;;10.93;5.28;;;;;;;11.58;38.77;99404.69;4953280;29;20279;-74
2021/04/26 08:06:56;;;;;;;4.93;4.53;;;;;;;11.84;38.53;99406.50;4953910;29;20195;-72
2021/04/26 08:09:22;;;;;;;7.35;4.60;;;;;;;11.93;38.42;99404.19;4953802;28;20252;-73
2021/04/26 08:11:48;;;;;;;5.57;5.05;;;;;;;12.36;37.68;99395.91;4953103;29;20241;-74
2021/04/26 08:14:16;;;;;;;11.10;5.20;;;;;;;12.62;37.37;99396.81;4953333;28;20283;-74
2021/04/26 08:16:42;;;;;;;6.32;5.25;;;;;;;12.45;37.31;99390.72;4953129;29;20216;-74
2021/04/26 08:19:09;;;;;;;8.38;5.18;;;;;;;12.44;37.23;99380.91;4953758;28;20216;-72
2021/04/26 08:21:36;;;;;;;5.80;4.72;;;;;;;12.33;37.54;99391.56;4953644;29;20189;-73
2021/04/26 08:24:04;;;;;;;8.48;5.35;;;;;;;12.47;37.41;99399.56;4953855;28;20303;-73
2021/04/26 08:26:30;;;;;;;5.38;4.93;;;;;;;12.31;37.28;99394.38;4953522;29;20247;-72
2021/04/26 08:28:56;;;;;;;6.57;4.80;;;;;;;12.53;37.30;99387.50;4953559;29;20205;-73
2021/04/26 08:31:22;;;;;;;6.63;4.72;;;;;;;12.62;36.92;99375.19;4953569;29;20279;-73
2021/04/26 08:33:48;;;;;;;9.15;4.90;;;;;;;12.82;36.83;99388.16;4953140;28;20224;-74
2021/04/26 08:36:15;;;;;;;10.68;8.23;;;;;;;13.01;36.40;99379.59;4953578;29;20547;-74
2021/04/26 08:38:41;;;;;;;7.22;5.10;;;;;;;12.72;36.72;99387.94;4953300;28;20262;-73
2021/04/26 08:41:13;;;;;;;10.60;6.05;;;;;;;12.94;36.32;99375.63;4953371;29;20193;-72
2021/04/26 08:43:39;;;;;;;8.98;4.78;;;;;;;13.02;36.43;99378.59;4953341;29;20189;-72
2021/04/26 08:46:05;;;;;;;8.30;5.93;;;;;;;13.15;36.16;99374.06;4953322;28;20663;-74
2021/04/26 08:48:32;;;;;;;8.10;5.45;;;;;;;13.01;35.83;99368.78;4955444;28;20221;-74
2021/04/26 08:51:00;;;;;;;6.82;5.43;;;;;;;13.26;36.22;99367.00;4956610;29;20235;-74
2021/04/26 08:53:26;;;;;;;6.10;4.55;;;;;;;13.21;35.89;99369.19;4956663;28;20303;-73
2021/04/26 08:55:52;;;;;;;5.63;4.93;;;;;;;13.43;35.98;99366.69;4956309;29;20635;-74
2021/04/26 08:58:19;;;;;;;7.75;5.72;;;;;;;13.32;36.03;99359.34;4956847;28;20321;-73
2021/04/26 09:00:45;;;;;;;6.10;4.95;;;;;;;13.62;35.63;99354.50;4956594;29;20620;-74
2021/04/26 09:03:12;;;;;;;6.60;4.80;;;;;;;13.81;35.46;99364.78;4956234;29;20283;-76
2021/04/26 09:05:40;;;;;;;8.50;6.00;;;;;;;13.92;35.30;99362.13;4956331;28;20690;-73
2021/04/26 09:08:10;;;;;;;8.45;5.30;;;;;;;13.72;35.50;99358.22;4956212;29;20189;-73
2021/04/26 09:10:41;;;;;;;6.60;4.90;;;;;;;13.96;35.10;99364.50;4956148;29;20287;-73
2021/04/26 09:13:26;;;;;;;11.73;5.10;;;;;;;13.47;35.74;99362.75;4956398;29;20659;-74
2021/04/26 09:15:54;;;;;;;8.50;4.85;;;;;;;13.70;35.80;99362.88;4956252;29;20611;-74
2021/04/26 09:18:21;;;;;;;7.65;5.10;;;;;;;13.76;35.27;99349.75;4956063;28;20303;-72
2021/04/26 09:20:47;;;;;;;7.70;4.93;;;;;;;13.91;35.27;99353.16;4955970;29;20214;-73
2021/04/26 09:23:15;;;;;;;4.95;4.55;;;;;;;13.92;34.80;99357.59;4956390;29;20236;-73
2021/04/26 09:25:42;;;;;;;6.55;4.75;;;;;;;13.84;35.32;99353.72;4956501;29;20192;-73
2021/04/26 09:28:10;;;;;;;6.18;4.85;;;;;;;14.15;34.93;99358.53;4956197;29;20212;-73
2021/04/26 09:30:42;;;;;;;6.22;4.50;;;;;;;14.22;34.79;99353.50;4956351;29;20192;-74
2021/04/26 09:33:34;;;;;;;7.43;5.05;;;;;;;13.86;35.38;99349.94;4956279;29;20212;-73
2021/04/26 09:36:14;;;;;;;4.70;4.30;;;;;;;13.70;35.47;99342.13;4955641;29;20212;-73
2021/04/26 09:38:43;;;;;;;7.40;4.35;;;;;;;13.75;35.21;99341.78;4956040;29;20195;-73
2021/04/26 09:41:12;;;;;;;6.13;5.03;;;;;;;13.70;35.27;99334.00;4955969;29;20542;-73
2021/04/26 09:43:40;;;;;;;7.28;5.50;;;;;;;13.51;36.01;99342.63;4955570;29;20201;-74
2021/04/26 09:46:08;;;;;;;8.27;4.90;;;;;;;14.02;35.23;99335.22;4956047;28;20243;-73
2021/04/26 09:48:34;;;;;;;7.80;5.20;;;;;;;13.92;35.12;99330.50;4955650;29;20232;-74
2021/04/26 09:51:05;;;;;;;12.00;5.10;;;;;;;13.81;35.33;99324.19;4955388;28;20319;-73
2021/04/26 09:53:33;;;;;;;8.63;5.63;;;;;;;14.15;34.77;99323.34;4955632;29;20213;-73
2021/04/26 09:56:10;;;;;;;6.60;4.88;;;;;;;14.67;34.37;99313.00;4955643;29;20192;-74
2021/04/26 09:58:39;;;;;;;6.25;4.30;;;;;;;14.80;33.12;99315.59;4955403;29;20197;-72
2021/04/26 10:01:07;;;;;;;6.72;5.97;;;;;;;14.98;33.32;99322.25;4954916;28;20610;-74
2021/04/26 10:03:33;;;;;;;6.03;5.28;;;;;;;14.90;33.49;99322.03;4955400;29;20276;-73
2021/04/26 10:06:00;;;;;;;8.73;4.50;;;;;;;15.26;32.44;99314.56;4955420;29;20289;-73
2021/04/26 10:08:27;;;;;;;5.28;4.13;;;;;;;14.64;32.96;99313.25;4955602;29;20828;-73
2021/04/26 10:10:53;;;;;;;4.13;3.72;;;;;;;14.66;32.43;99316.69;4955069;29;20201;-73
2021/04/26 10:13:21;;;;;;;10.02;4.88;;;;;;;14.50;32.81;99302.63;4955534;29;20286;-73
2021/04/26 10:15:53;;;;;;;4.60;4.05;;;;;;;14.33;32.28;99312.91;4955294;29;20621;-73
2021/04/26 10:18:22;;;;;;;7.18;4.13;;;;;;;14.73;32.11;99301.69;4955608;28;20192;-73
2021/04/26 10:20:51;;;;;;;5.85;4.00;;;;;;;14.94;31.39;99304.50;4955491;29;20282;-73
2021/04/26 10:23:41;;;;;;;7.30;4.07;;;;;;;14.45;32.31;99300.28;4955125;29;20196;-71
2021/04/26 10:26:08;;;;;;;6.90;5.30;;;;;;;14.66;32.28;99303.16;4954825;29;20279;-73
2021/04/26 10:28:35;;;;;;;8.77;5.40;;;;;;;14.71;32.41;99290.09;4954976;29;20225;-73
2021/04/26 10:31:10;;;;;;;8.82;5.95;;;;;;;14.98;32.39;99287.00;4954611;28;20210;-73
2021/04/26 10:34:08;;;;;;;5.40;4.15;;;;;;;14.86;32.13;99285.31;4954189;29;20212;-74
2021/04/26 10:36:45;;;;;;;6.72;4.75;;;;;;;15.11;31.40;99276.03;4955024;28;20548;-74
2021/04/26 10:39:12;;;;;;;7.28;5.00;;;;;;;15.49;31.21;99266.56;4954801;28;20189;-75
2021/04/26 10:42:03;;;;;;;6.88;4.32;;;;;;;15.49;30.71;99269.28;4955086;28;20615;-73
2021/04/26 10:44:59;;;;;;;6.18;4.53;;;;;;;15.43;30.02;99254.38;4954618;29;20190;-75
2021/04/26 10:47:32;;;;;;;4.82;4.38;;;;;;;15.69;30.15;99261.28;4895038;29;20295;-74
2021/04/26 10:50:38;;;;;;;4.88;4.22;;;;;;;15.61;29.61;99256.53;4943610;28;20217;-76
2021/04/26 10:53:06;;;;;;;7.47;4.90;;;;;;;15.69;29.70;99254.00;4954744;29;20246;-76
2021/04/26 10:55:44;;;;;;;5.53;4.60;;;;;;;15.60;29.81;99244.81;4954562;29;20213;-75
2021/04/26 10:58:33;;;;;;;6.60;4.93;;;;;;;15.61;29.84;99241.09;4954508;29;20195;-74
2021/04/26 11:00:59;;;;;;;6.40;4.85;;;;;;;15.00;30.18;99238.09;4954374;29;20552;-74
2021/04/26 11:03:49;;;;;;;6.72;4.20;;;;;;;14.98;30.67;99226.50;4954546;28;20222;-74
2021/04/26 11:06:29;;;;;;;4.60;4.10;;;;;;;15.40;30.24;99221.22;4954062;28;20247;-74
2021/04/26 11:09:15;;;;;;;9.57;4.85;;;;;;;15.64;30.00;99213.69;4954399;29;20580;-73
2021/04/26 11:11:49;;;;;;;5.07;4.07;;;;;;;15.72;29.57;99215.81;4952218;28;20196;-73
2021/04/26 11:14:24;;;;;;;5.40;4.50;;;;;;;15.64;30.27;99210.13;4954294;29;20210;-75
2021/04/26 11:17:10;;;;;;;6.07;5.00;;;;;;;15.60;30.50;99209.53;4954017;28;20198;-74
2021/04/26 11:20:11;;;;;;;7.53;4.55;;;;;;;15.92;30.19;99208.66;4954009;28;20290;-74
2021/04/26 11:22:38;;;;;;;5.30;4.78;;;;;;;16.43;29.37;99196.91;4954342;28;20634;-75
2021/04/26 11:25:06;;;;;;;10.65;5.72;;;;;;;16.34;29.42;99189.56;4953796;29;20204;-74
2021/04/26 11:27:37;;;;;;;5.47;4.50;;;;;;;16.07;29.45;99194.72;4954404;29;20298;-74
2021/04/26 11:30:26;;;;;;;7.93;5.85;;;;;;;16.09;29.41;99187.31;4953986;28;20193;-74
2021/04/26 11:33:09;;;;;;;6.03;5.10;;;;;;;16.23;29.26;99182.38;4954141;29;20334;-76
2021/04/26 11:35:59;;;;;;;8.70;4.90;;;;;;;15.94;29.53;99175.94;4953987;29;20197;-75
2021/04/26 11:38:26;;;;;;;6.65;4.90;;;;;;;15.87;29.94;99169.31;4953647;29;20215;-75
2021/04/26 11:40:53;;;;;;;5.75;5.15;;;;;;;15.88;29.72;99171.91;4953905;28;20214;-74
2021/04/26 11:43:20;;;;;;;6.85;5.28;;;;;;;16.22;29.45;99158.94;4953923;29;20189;-75
2021/04/26 11:45:47;;;;;;;6.88;5.50;;;;;;;16.41;29.37;99160.00;4952395;29;20211;-75
2021/04/26 11:48:22;;;;;;;6.00;4.85;;;;;;;16.04;29.19;99157.84;4953646;28;20200;-74